Terminal Aerodrome Forecast
Issued by NWS

Home | Current Version | Previous Version | Text Only | Print | Product List | Glossary On
Versions: 1 2 3 4 5 6 7 8 9 10 11 12 13 14 15 16 17
585
FTUS46 KLOX 252346
TAFOXR
TAF
KOXR 252346Z 2600/2624 29009KT P6SM OVC120
     FM260300 27010KT P6SM BKN030 OVC100
     FM260900 VRB03KT P6SM -SHRA BKN015 OVC050
     FM261200 05006KT 5SM -RA BR BKN010 OVC030
     FM261600 10010KT P6SM -RA BKN015 OVC030
     FM261900 12010KT P6SM VCSH BKN020 BKN060
     FM262300 12010KT P6SM SCT030 BKN080=

USA.gov is the U.S. government's official web portal to all federal, state and local government web resources and services.